sensor_id;sensor_type;location;lat;lon;timestamp;P1;durP1;ratioP1;P2;durP2;ratioP2
33844;SDS011;20145;43.118;25.694;2022-10-16T00:00:57;5.43;;;4.95;;
33844;SDS011;20145;43.118;25.694;2022-10-16T00:03:22;6.43;;;5.20;;
33844;SDS011;20145;43.118;25.694;2022-10-16T00:05:48;7.03;;;6.00;;
33844;SDS011;20145;43.118;25.694;2022-10-16T00:08:14;7.35;;;5.97;;
33844;SDS011;20145;43.118;25.694;2022-10-16T00:10:40;10.23;;;6.43;;
33844;SDS011;20145;43.118;25.694;2022-10-16T00:13:05;6.63;;;5.68;;
33844;SDS011;20145;43.118;25.694;2022-10-16T00:15:35;10.93;;;6.05;;
33844;SDS011;20145;43.118;25.694;2022-10-16T00:18:02;10.05;;;6.30;;
33844;SDS011;20145;43.118;25.694;2022-10-16T00:20:29;8.38;;;6.53;;
33844;SDS011;20145;43.118;25.694;2022-10-16T00:22:56;8.00;;;7.00;;
33844;SDS011;20145;43.118;25.694;2022-10-16T00:25:22;11.70;;;6.88;;
33844;SDS011;20145;43.118;25.694;2022-10-16T00:27:48;8.82;;;7.28;;
33844;SDS011;20145;43.118;25.694;2022-10-16T00:30:13;9.75;;;7.00;;
33844;SDS011;20145;43.118;25.694;2022-10-16T00:32:39;8.45;;;6.53;;
33844;SDS011;20145;43.118;25.694;2022-10-16T00:35:05;9.27;;;6.78;;
33844;SDS011;20145;43.118;25.694;2022-10-16T00:37:31;8.30;;;7.10;;
33844;SDS011;20145;43.118;25.694;2022-10-16T00:39:56;11.77;;;7.30;;
33844;SDS011;20145;43.118;25.694;2022-10-16T00:42:22;8.50;;;7.47;;
33844;SDS011;20145;43.118;25.694;2022-10-16T00:44:52;10.10;;;7.95;;
33844;SDS011;20145;43.118;25.694;2022-10-16T00:49:50;9.25;;;7.30;;
33844;SDS011;20145;43.118;25.694;2022-10-16T00:52:18;10.48;;;7.85;;
33844;SDS011;20145;43.118;25.694;2022-10-16T00:54:44;10.05;;;8.68;;
33844;SDS011;20145;43.118;25.694;2022-10-16T00:57:11;9.18;;;8.13;;
33844;SDS011;20145;43.118;25.694;2022-10-16T00:59:38;10.18;;;8.50;;
33844;SDS011;20145;43.118;25.694;2022-10-16T01:02:06;10.38;;;8.38;;
33844;SDS011;20145;43.118;25.694;2022-10-16T01:04:35;10.55;;;8.57;;
33844;SDS011;20145;43.118;25.694;2022-10-16T01:21:10;11.50;;;9.48;;
33844;SDS011;20145;43.118;25.694;2022-10-16T01:26:36;10.90;;;9.57;;
33844;SDS011;20145;43.118;25.694;2022-10-16T01:29:28;10.80;;;9.57;;
33844;SDS011;20145;43.118;25.694;2022-10-16T01:31:59;11.70;;;10.50;;
33844;SDS011;20145;43.118;25.694;2022-10-16T01:34:49;14.52;;;10.77;;
33844;SDS011;20145;43.118;25.694;2022-10-16T01:37:18;11.18;;;10.07;;
33844;SDS011;20145;43.118;25.694;2022-10-16T01:39:53;13.02;;;10.65;;
33844;SDS011;20145;43.118;25.694;2022-10-16T01:42:24;14.20;;;11.77;;
33844;SDS011;20145;43.118;25.694;2022-10-16T01:44:55;15.90;;;11.15;;
33844;SDS011;20145;43.118;25.694;2022-10-16T01:47:24;11.65;;;10.45;;
33844;SDS011;20145;43.118;25.694;2022-10-16T01:49:52;13.30;;;10.70;;
33844;SDS011;20145;43.118;25.694;2022-10-16T01:52:20;12.68;;;11.38;;
33844;SDS011;20145;43.118;25.694;2022-10-16T01:54:50;14.52;;;10.27;;
33844;SDS011;20145;43.118;25.694;2022-10-16T01:57:19;16.20;;;10.40;;
33844;SDS011;20145;43.118;25.694;2022-10-16T01:59:47;20.23;;;10.15;;
33844;SDS011;20145;43.118;25.694;2022-10-16T02:02:18;17.52;;;10.82;;
33844;SDS011;20145;43.118;25.694;2022-10-16T02:04:54;11.65;;;10.55;;
33844;SDS011;20145;43.118;25.694;2022-10-16T02:07:43;15.23;;;10.15;;
33844;SDS011;20145;43.118;25.694;2022-10-16T02:10:09;12.45;;;9.60;;
33844;SDS011;20145;43.118;25.694;2022-10-16T02:12:36;11.43;;;9.32;;
33844;SDS011;20145;43.118;25.694;2022-10-16T02:15:06;14.40;;;9.52;;
33844;SDS011;20145;43.118;25.694;2022-10-16T02:17:32;10.77;;;9.68;;
33844;SDS011;20145;43.118;25.694;2022-10-16T02:19:57;12.00;;;9.40;;
33844;SDS011;20145;43.118;25.694;2022-10-16T02:22:28;16.10;;;9.93;;
33844;SDS011;20145;43.118;25.694;2022-10-16T02:25:01;12.75;;;10.60;;
33844;SDS011;20145;43.118;25.694;2022-10-16T02:30:27;15.10;;;10.90;;
33844;SDS011;20145;43.118;25.694;2022-10-16T02:32:59;16.50;;;9.35;;
33844;SDS011;20145;43.118;25.694;2022-10-16T02:35:27;11.45;;;9.40;;
33844;SDS011;20145;43.118;25.694;2022-10-16T02:37:55;12.65;;;8.88;;
33844;SDS011;20145;43.118;25.694;2022-10-16T02:40:22;10.10;;;8.43;;
33844;SDS011;20145;43.118;25.694;2022-10-16T02:42:49;14.07;;;9.07;;
33844;SDS011;20145;43.118;25.694;2022-10-16T02:45:16;10.20;;;8.70;;
33844;SDS011;20145;43.118;25.694;2022-10-16T02:47:43;9.35;;;8.35;;
33844;SDS011;20145;43.118;25.694;2022-10-16T02:50:08;13.05;;;9.15;;
33844;SDS011;20145;43.118;25.694;2022-10-16T02:52:34;12.90;;;9.38;;
33844;SDS011;20145;43.118;25.694;2022-10-16T02:55:00;10.38;;;8.60;;
33844;SDS011;20145;43.118;25.694;2022-10-16T02:57:25;11.48;;;9.63;;
33844;SDS011;20145;43.118;25.694;2022-10-16T02:59:51;10.75;;;9.30;;
33844;SDS011;20145;43.118;25.694;2022-10-16T03:02:16;10.30;;;9.18;;
33844;SDS011;20145;43.118;25.694;2022-10-16T03:04:42;10.43;;;9.43;;
33844;SDS011;20145;43.118;25.694;2022-10-16T03:07:07;11.50;;;9.95;;
33844;SDS011;20145;43.118;25.694;2022-10-16T03:09:33;11.88;;;9.30;;
33844;SDS011;20145;43.118;25.694;2022-10-16T03:11:59;10.07;;;8.95;;
33844;SDS011;20145;43.118;25.694;2022-10-16T03:14:24;10.73;;;9.32;;
33844;SDS011;20145;43.118;25.694;2022-10-16T03:16:50;14.38;;;9.98;;
33844;SDS011;20145;43.118;25.694;2022-10-16T03:19:16;11.15;;;9.73;;
33844;SDS011;20145;43.118;25.694;2022-10-16T03:21:42;11.65;;;10.07;;
33844;SDS011;20145;43.118;25.694;2022-10-16T03:24:08;14.88;;;10.00;;
33844;SDS011;20145;43.118;25.694;2022-10-16T03:26:34;11.73;;;10.40;;
33844;SDS011;20145;43.118;25.694;2022-10-16T03:28:59;12.77;;;10.98;;
33844;SDS011;20145;43.118;25.694;2022-10-16T03:31:27;12.35;;;10.20;;
33844;SDS011;20145;43.118;25.694;2022-10-16T03:33:53;14.82;;;10.98;;
33844;SDS011;20145;43.118;25.694;2022-10-16T03:36:18;12.70;;;10.48;;
33844;SDS011;20145;43.118;25.694;2022-10-16T03:38:44;12.70;;;10.15;;
33844;SDS011;20145;43.118;25.694;2022-10-16T03:41:09;14.45;;;10.63;;
33844;SDS011;20145;43.118;25.694;2022-10-16T03:43:35;11.45;;;10.07;;
33844;SDS011;20145;43.118;25.694;2022-10-16T03:46:00;12.40;;;10.35;;
33844;SDS011;20145;43.118;25.694;2022-10-16T03:48:26;11.43;;;9.35;;
33844;SDS011;20145;43.118;25.694;2022-10-16T03:50:52;11.23;;;9.65;;
33844;SDS011;20145;43.118;25.694;2022-10-16T03:53:17;10.70;;;9.60;;
33844;SDS011;20145;43.118;25.694;2022-10-16T03:55:43;13.00;;;9.98;;
33844;SDS011;20145;43.118;25.694;2022-10-16T03:58:10;10.70;;;9.60;;
33844;SDS011;20145;43.118;25.694;2022-10-16T04:00:36;13.30;;;9.38;;
33844;SDS011;20145;43.118;25.694;2022-10-16T04:03:05;11.63;;;8.90;;
33844;SDS011;20145;43.118;25.694;2022-10-16T04:05:31;9.85;;;8.40;;
33844;SDS011;20145;43.118;25.694;2022-10-16T04:07:56;12.52;;;9.93;;
33844;SDS011;20145;43.118;25.694;2022-10-16T04:10:22;11.15;;;9.45;;
33844;SDS011;20145;43.118;25.694;2022-10-16T04:12:47;11.98;;;9.70;;
33844;SDS011;20145;43.118;25.694;2022-10-16T04:15:13;10.98;;;9.85;;
33844;SDS011;20145;43.118;25.694;2022-10-16T04:17:38;12.98;;;10.73;;
33844;SDS011;20145;43.118;25.694;2022-10-16T04:20:04;11.10;;;10.00;;
33844;SDS011;20145;43.118;25.694;2022-10-16T04:22:30;11.98;;;9.05;;
33844;SDS011;20145;43.118;25.694;2022-10-16T04:24:56;12.05;;;10.75;;
33844;SDS011;20145;43.118;25.694;2022-10-16T04:27:22;11.57;;;10.07;;
33844;SDS011;20145;43.118;25.694;2022-10-16T04:29:47;13.20;;;9.57;;
33844;SDS011;20145;43.118;25.694;2022-10-16T04:32:13;10.82;;;9.77;;
33844;SDS011;20145;43.118;25.694;2022-10-16T04:34:39;11.52;;;10.43;;
33844;SDS011;20145;43.118;25.694;2022-10-16T04:37:05;12.50;;;9.68;;
33844;SDS011;20145;43.118;25.694;2022-10-16T04:39:30;12.85;;;10.13;;
33844;SDS011;20145;43.118;25.694;2022-10-16T04:41:56;14.48;;;9.95;;
33844;SDS011;20145;43.118;25.694;2022-10-16T04:44:22;15.15;;;10.43;;
33844;SDS011;20145;43.118;25.694;2022-10-16T04:46:50;10.48;;;9.48;;
33844;SDS011;20145;43.118;25.694;2022-10-16T04:49:16;10.52;;;8.93;;
33844;SDS011;20145;43.118;25.694;2022-10-16T04:51:42;10.48;;;8.98;;
33844;SDS011;20145;43.118;25.694;2022-10-16T04:54:08;11.77;;;9.23;;
33844;SDS011;20145;43.118;25.694;2022-10-16T04:56:34;14.57;;;12.23;;
33844;SDS011;20145;43.118;25.694;2022-10-16T04:59:08;11.27;;;9.63;;
33844;SDS011;20145;43.118;25.694;2022-10-16T05:01:36;11.00;;;9.88;;
33844;SDS011;20145;43.118;25.694;2022-10-16T05:04:01;10.00;;;9.00;;
33844;SDS011;20145;43.118;25.694;2022-10-16T05:06:27;9.43;;;7.97;;
33844;SDS011;20145;43.118;25.694;2022-10-16T05:08:53;10.18;;;9.10;;
33844;SDS011;20145;43.118;25.694;2022-10-16T05:11:18;10.23;;;8.68;;
33844;SDS011;20145;43.118;25.694;2022-10-16T05:13:44;11.15;;;9.48;;
33844;SDS011;20145;43.118;25.694;2022-10-16T05:16:10;10.15;;;9.15;;
33844;SDS011;20145;43.118;25.694;2022-10-16T05:18:36;18.02;;;9.68;;
33844;SDS011;20145;43.118;25.694;2022-10-16T05:21:01;15.90;;;10.13;;
33844;SDS011;20145;43.118;25.694;2022-10-16T05:23:27;12.80;;;9.05;;
33844;SDS011;20145;43.118;25.694;2022-10-16T05:25:54;11.20;;;9.55;;
33844;SDS011;20145;43.118;25.694;2022-10-16T05:28:23;13.10;;;9.43;;
33844;SDS011;20145;43.118;25.694;2022-10-16T05:30:50;13.48;;;9.70;;
33844;SDS011;20145;43.118;25.694;2022-10-16T05:33:16;10.38;;;9.27;;
33844;SDS011;20145;43.118;25.694;2022-10-16T05:35:42;11.82;;;9.65;;
33844;SDS011;20145;43.118;25.694;2022-10-16T05:38:09;11.75;;;10.07;;
33844;SDS011;20145;43.118;25.694;2022-10-16T05:40:34;12.60;;;10.57;;
33844;SDS011;20145;43.118;25.694;2022-10-16T05:43:00;24.80;;;16.55;;
33844;SDS011;20145;43.118;25.694;2022-10-16T05:45:26;16.13;;;14.23;;
33844;SDS011;20145;43.118;25.694;2022-10-16T05:47:52;19.77;;;15.35;;
33844;SDS011;20145;43.118;25.694;2022-10-16T05:50:17;24.45;;;17.95;;
33844;SDS011;20145;43.118;25.694;2022-10-16T05:52:43;25.10;;;18.35;;
33844;SDS011;20145;43.118;25.694;2022-10-16T05:55:09;22.05;;;17.70;;
33844;SDS011;20145;43.118;25.694;2022-10-16T05:57:35;23.20;;;19.80;;
33844;SDS011;20145;43.118;25.694;2022-10-16T06:00:00;25.05;;;19.83;;
33844;SDS011;20145;43.118;25.694;2022-10-16T06:02:26;25.58;;;19.95;;
33844;SDS011;20145;43.118;25.694;2022-10-16T06:04:52;24.98;;;20.50;;
33844;SDS011;20145;43.118;25.694;2022-10-16T06:07:21;26.27;;;20.65;;
33844;SDS011;20145;43.118;25.694;2022-10-16T06:09:48;32.63;;;21.77;;
33844;SDS011;20145;43.118;25.694;2022-10-16T06:12:15;30.77;;;23.45;;
33844;SDS011;20145;43.118;25.694;2022-10-16T06:14:41;27.25;;;23.88;;
33844;SDS011;20145;43.118;25.694;2022-10-16T06:17:06;24.85;;;21.85;;
33844;SDS011;20145;43.118;25.694;2022-10-16T06:19:32;24.02;;;21.30;;
33844;SDS011;20145;43.118;25.694;2022-10-16T06:21:58;24.90;;;20.20;;
33844;SDS011;20145;43.118;25.694;2022-10-16T06:24:24;24.05;;;19.05;;
33844;SDS011;20145;43.118;25.694;2022-10-16T06:26:50;27.23;;;19.02;;
33844;SDS011;20145;43.118;25.694;2022-10-16T06:29:16;25.58;;;19.52;;
33844;SDS011;20145;43.118;25.694;2022-10-16T06:31:42;23.63;;;17.83;;
33844;SDS011;20145;43.118;25.694;2022-10-16T06:34:08;21.98;;;18.42;;
33844;SDS011;20145;43.118;25.694;2022-10-16T06:36:36;21.50;;;18.15;;
33844;SDS011;20145;43.118;25.694;2022-10-16T06:39:03;20.75;;;17.92;;
33844;SDS011;20145;43.118;25.694;2022-10-16T06:41:30;22.33;;;17.83;;
33844;SDS011;20145;43.118;25.694;2022-10-16T06:43:56;22.23;;;17.45;;
33844;SDS011;20145;43.118;25.694;2022-10-16T06:46:23;20.42;;;17.65;;
33844;SDS011;20145;43.118;25.694;2022-10-16T06:48:51;25.52;;;18.38;;
33844;SDS011;20145;43.118;25.694;2022-10-16T06:51:18;19.85;;;16.95;;
33844;SDS011;20145;43.118;25.694;2022-10-16T06:53:46;19.90;;;16.52;;
33844;SDS011;20145;43.118;25.694;2022-10-16T06:56:18;19.83;;;16.35;;
33844;SDS011;20145;43.118;25.694;2022-10-16T06:58:46;21.80;;;18.77;;
33844;SDS011;20145;43.118;25.694;2022-10-16T07:01:12;21.60;;;18.85;;
33844;SDS011;20145;43.118;25.694;2022-10-16T07:03:39;20.77;;;17.50;;
33844;SDS011;20145;43.118;25.694;2022-10-16T07:06:07;27.48;;;22.50;;
33844;SDS011;20145;43.118;25.694;2022-10-16T07:08:35;23.48;;;17.90;;
33844;SDS011;20145;43.118;25.694;2022-10-16T07:11:02;24.15;;;21.55;;
33844;SDS011;20145;43.118;25.694;2022-10-16T07:13:39;24.88;;;22.20;;
33844;SDS011;20145;43.118;25.694;2022-10-16T07:18:32;23.33;;;19.13;;
33844;SDS011;20145;43.118;25.694;2022-10-16T07:21:11;22.63;;;18.48;;
33844;SDS011;20145;43.118;25.694;2022-10-16T07:23:39;20.27;;;17.35;;
33844;SDS011;20145;43.118;25.694;2022-10-16T07:26:05;18.00;;;16.10;;
33844;SDS011;20145;43.118;25.694;2022-10-16T07:28:32;22.88;;;15.73;;
33844;SDS011;20145;43.118;25.694;2022-10-16T07:31:05;20.88;;;15.65;;
33844;SDS011;20145;43.118;25.694;2022-10-16T07:33:33;17.48;;;15.57;;
33844;SDS011;20145;43.118;25.694;2022-10-16T07:35:59;17.00;;;14.73;;
33844;SDS011;20145;43.118;25.694;2022-10-16T07:38:25;17.38;;;15.38;;
33844;SDS011;20145;43.118;25.694;2022-10-16T07:41:00;17.17;;;15.07;;
33844;SDS011;20145;43.118;25.694;2022-10-16T07:43:27;18.85;;;15.55;;
33844;SDS011;20145;43.118;25.694;2022-10-16T07:45:53;22.15;;;17.42;;
33844;SDS011;20145;43.118;25.694;2022-10-16T07:48:20;19.85;;;15.18;;
33844;SDS011;20145;43.118;25.694;2022-10-16T07:50:47;14.27;;;12.77;;
33844;SDS011;20145;43.118;25.694;2022-10-16T07:53:12;15.25;;;13.20;;
33844;SDS011;20145;43.118;25.694;2022-10-16T07:55:38;16.95;;;13.52;;
33844;SDS011;20145;43.118;25.694;2022-10-16T07:58:05;15.90;;;13.77;;
33844;SDS011;20145;43.118;25.694;2022-10-16T08:00:31;16.25;;;13.10;;
33844;SDS011;20145;43.118;25.694;2022-10-16T08:02:57;14.85;;;12.50;;
33844;SDS011;20145;43.118;25.694;2022-10-16T08:05:26;16.02;;;13.00;;
33844;SDS011;20145;43.118;25.694;2022-10-16T08:07:52;13.07;;;11.70;;
33844;SDS011;20145;43.118;25.694;2022-10-16T08:10:18;16.10;;;12.73;;
33844;SDS011;20145;43.118;25.694;2022-10-16T08:12:45;16.20;;;12.88;;
33844;SDS011;20145;43.118;25.694;2022-10-16T08:15:10;14.50;;;12.35;;
33844;SDS011;20145;43.118;25.694;2022-10-16T08:17:37;13.43;;;11.70;;
33844;SDS011;20145;43.118;25.694;2022-10-16T08:20:03;13.23;;;11.88;;
33844;SDS011;20145;43.118;25.694;2022-10-16T08:22:29;14.45;;;12.50;;
33844;SDS011;20145;43.118;25.694;2022-10-16T08:24:54;13.20;;;11.90;;
33844;SDS011;20145;43.118;25.694;2022-10-16T08:27:20;11.63;;;10.43;;
33844;SDS011;20145;43.118;25.694;2022-10-16T08:29:46;12.18;;;10.57;;
33844;SDS011;20145;43.118;25.694;2022-10-16T08:32:11;11.35;;;10.18;;
33844;SDS011;20145;43.118;25.694;2022-10-16T08:34:37;15.48;;;10.02;;
33844;SDS011;20145;43.118;25.694;2022-10-16T08:37:02;12.77;;;8.80;;
33844;SDS011;20145;43.118;25.694;2022-10-16T08:39:28;12.20;;;9.02;;
33844;SDS011;20145;43.118;25.694;2022-10-16T08:50:30;9.40;;;5.85;;
33844;SDS011;20145;43.118;25.694;2022-10-16T08:52:58;12.60;;;6.70;;
33844;SDS011;20145;43.118;25.694;2022-10-16T09:00:43;10.90;;;6.82;;
33844;SDS011;20145;43.118;25.694;2022-10-16T09:08:58;10.70;;;7.68;;
33844;SDS011;20145;43.118;25.694;2022-10-16T09:13:55;12.23;;;7.03;;
33844;SDS011;20145;43.118;25.694;2022-10-16T09:16:43;10.57;;;6.55;;
33844;SDS011;20145;43.118;25.694;2022-10-16T09:19:19;8.15;;;5.78;;
33844;SDS011;20145;43.118;25.694;2022-10-16T09:21:53;11.50;;;6.18;;
33844;SDS011;20145;43.118;25.694;2022-10-16T09:24:20;7.90;;;6.05;;
33844;SDS011;20145;43.118;25.694;2022-10-16T09:26:49;7.78;;;5.88;;
33844;SDS011;20145;43.118;25.694;2022-10-16T09:29:19;10.02;;;4.95;;
33844;SDS011;20145;43.118;25.694;2022-10-16T09:36:44;10.55;;;5.45;;
33844;SDS011;20145;43.118;25.694;2022-10-16T09:39:11;9.90;;;5.13;;
33844;SDS011;20145;43.118;25.694;2022-10-16T09:41:37;5.97;;;4.90;;
33844;SDS011;20145;43.118;25.694;2022-10-16T09:44:16;11.18;;;5.35;;
33844;SDS011;20145;43.118;25.694;2022-10-16T09:46:43;10.10;;;5.43;;
33844;SDS011;20145;43.118;25.694;2022-10-16T09:49:24;14.63;;;5.93;;
33844;SDS011;20145;43.118;25.694;2022-10-16T09:52:03;6.82;;;5.53;;
33844;SDS011;20145;43.118;25.694;2022-10-16T09:54:37;10.30;;;4.72;;
33844;SDS011;20145;43.118;25.694;2022-10-16T09:57:17;8.23;;;5.60;;
33844;SDS011;20145;43.118;25.694;2022-10-16T09:59:47;9.98;;;5.10;;
33844;SDS011;20145;43.118;25.694;2022-10-16T10:02:17;11.70;;;5.57;;
33844;SDS011;20145;43.118;25.694;2022-10-16T10:04:51;11.82;;;7.25;;
33844;SDS011;20145;43.118;25.694;2022-10-16T10:07:25;7.30;;;5.35;;
33844;SDS011;20145;43.118;25.694;2022-10-16T10:09:52;8.70;;;5.77;;
33844;SDS011;20145;43.118;25.694;2022-10-16T10:14:51;10.27;;;5.07;;
33844;SDS011;20145;43.118;25.694;2022-10-16T10:17:18;7.43;;;5.60;;
33844;SDS011;20145;43.118;25.694;2022-10-16T10:19:54;9.48;;;5.15;;
33844;SDS011;20145;43.118;25.694;2022-10-16T10:30:13;12.35;;;6.22;;
33844;SDS011;20145;43.118;25.694;2022-10-16T10:32:51;9.63;;;5.55;;
33844;SDS011;20145;43.118;25.694;2022-10-16T10:35:31;12.38;;;6.43;;
33844;SDS011;20145;43.118;25.694;2022-10-16T10:38:16;8.55;;;6.03;;
33844;SDS011;20145;43.118;25.694;2022-10-16T10:52:27;10.70;;;6.15;;
33844;SDS011;20145;43.118;25.694;2022-10-16T11:01:17;12.57;;;5.10;;
33844;SDS011;20145;43.118;25.694;2022-10-16T11:09:24;11.25;;;5.53;;
33844;SDS011;20145;43.118;25.694;2022-10-16T11:17:22;13.80;;;6.07;;
33844;SDS011;20145;43.118;25.694;2022-10-16T11:19:54;14.27;;;5.60;;
33844;SDS011;20145;43.118;25.694;2022-10-16T11:22:36;10.00;;;5.13;;
33844;SDS011;20145;43.118;25.694;2022-10-16T11:25:40;6.95;;;5.30;;
33844;SDS011;20145;43.118;25.694;2022-10-16T11:28:16;10.82;;;4.93;;
33844;SDS011;20145;43.118;25.694;2022-10-16T11:33:38;12.40;;;4.95;;
33844;SDS011;20145;43.118;25.694;2022-10-16T11:36:10;8.70;;;5.20;;
33844;SDS011;20145;43.118;25.694;2022-10-16T11:47:04;9.18;;;5.32;;
33844;SDS011;20145;43.118;25.694;2022-10-16T11:49:41;10.07;;;4.93;;
33844;SDS011;20145;43.118;25.694;2022-10-16T11:52:19;6.00;;;5.03;;
33844;SDS011;20145;43.118;25.694;2022-10-16T11:57:40;5.18;;;4.13;;
33844;SDS011;20145;43.118;25.694;2022-10-16T12:00:22;11.32;;;4.13;;
33844;SDS011;20145;43.118;25.694;2022-10-16T12:03:04;6.05;;;4.28;;
33844;SDS011;20145;43.118;25.694;2022-10-16T12:08:38;8.40;;;4.93;;
33844;SDS011;20145;43.118;25.694;2022-10-16T12:11:24;7.25;;;4.60;;
33844;SDS011;20145;43.118;25.694;2022-10-16T12:19:22;8.05;;;5.43;;
33844;SDS011;20145;43.118;25.694;2022-10-16T12:21:49;8.07;;;4.57;;
33844;SDS011;20145;43.118;25.694;2022-10-16T12:24:34;5.45;;;4.50;;
33844;SDS011;20145;43.118;25.694;2022-10-16T12:27:03;8.40;;;4.40;;
33844;SDS011;20145;43.118;25.694;2022-10-16T12:29:36;9.23;;;4.43;;
33844;SDS011;20145;43.118;25.694;2022-10-16T12:32:05;8.23;;;5.07;;
33844;SDS011;20145;43.118;25.694;2022-10-16T12:34:48;6.75;;;4.45;;
33844;SDS011;20145;43.118;25.694;2022-10-16T12:37:14;8.40;;;4.20;;
33844;SDS011;20145;43.118;25.694;2022-10-16T12:39:44;6.18;;;4.32;;
33844;SDS011;20145;43.118;25.694;2022-10-16T12:44:51;9.82;;;4.35;;
33844;SDS011;20145;43.118;25.694;2022-10-16T12:47:37;6.70;;;4.40;;
33844;SDS011;20145;43.118;25.694;2022-10-16T12:50:25;7.18;;;5.22;;
33844;SDS011;20145;43.118;25.694;2022-10-16T12:52:53;9.95;;;4.90;;
33844;SDS011;20145;43.118;25.694;2022-10-16T12:55:19;9.30;;;4.55;;
33844;SDS011;20145;43.118;25.694;2022-10-16T13:06:17;12.52;;;4.28;;
33844;SDS011;20145;43.118;25.694;2022-10-16T13:14:21;8.27;;;4.20;;
33844;SDS011;20145;43.118;25.694;2022-10-16T13:25:45;8.32;;;4.22;;
33844;SDS011;20145;43.118;25.694;2022-10-16T13:28:33;7.90;;;3.90;;
33844;SDS011;20145;43.118;25.694;2022-10-16T13:31:00;9.02;;;3.80;;
33844;SDS011;20145;43.118;25.694;2022-10-16T13:33:40;7.82;;;4.35;;
33844;SDS011;20145;43.118;25.694;2022-10-16T13:36:18;8.60;;;4.10;;
33844;SDS011;20145;43.118;25.694;2022-10-16T13:41:42;8.25;;;3.75;;
33844;SDS011;20145;43.118;25.694;2022-10-16T13:44:18;6.32;;;3.90;;
33844;SDS011;20145;43.118;25.694;2022-10-16T13:46:45;9.38;;;4.47;;
33844;SDS011;20145;43.118;25.694;2022-10-16T13:49:23;7.57;;;3.55;;
33844;SDS011;20145;43.118;25.694;2022-10-16T13:51:53;4.78;;;4.15;;
33844;SDS011;20145;43.118;25.694;2022-10-16T13:54:24;4.90;;;3.50;;
33844;SDS011;20145;43.118;25.694;2022-10-16T13:56:51;9.38;;;3.65;;
33844;SDS011;20145;43.118;25.694;2022-10-16T13:59:36;5.50;;;3.78;;
33844;SDS011;20145;43.118;25.694;2022-10-16T14:05:04;8.00;;;4.43;;
33844;SDS011;20145;43.118;25.694;2022-10-16T14:07:35;10.57;;;3.80;;
33844;SDS011;20145;43.118;25.694;2022-10-16T14:10:02;8.75;;;4.00;;
33844;SDS011;20145;43.118;25.694;2022-10-16T14:12:30;7.97;;;3.60;;
33844;SDS011;20145;43.118;25.694;2022-10-16T14:14:57;6.75;;;3.88;;
33844;SDS011;20145;43.118;25.694;2022-10-16T14:19:55;9.93;;;4.88;;
33844;SDS011;20145;43.118;25.694;2022-10-16T14:22:28;5.57;;;4.22;;
33844;SDS011;20145;43.118;25.694;2022-10-16T14:24:57;6.70;;;4.05;;
33844;SDS011;20145;43.118;25.694;2022-10-16T14:27:26;6.13;;;4.03;;
33844;SDS011;20145;43.118;25.694;2022-10-16T14:30:05;6.10;;;4.15;;
33844;SDS011;20145;43.118;25.694;2022-10-16T14:32:40;6.47;;;4.22;;
33844;SDS011;20145;43.118;25.694;2022-10-16T14:35:29;6.15;;;4.10;;
33844;SDS011;20145;43.118;25.694;2022-10-16T14:37:55;7.97;;;4.20;;
33844;SDS011;20145;43.118;25.694;2022-10-16T14:40:26;5.35;;;3.72;;
33844;SDS011;20145;43.118;25.694;2022-10-16T14:42:57;5.38;;;3.85;;
33844;SDS011;20145;43.118;25.694;2022-10-16T14:45:24;7.25;;;4.60;;
33844;SDS011;20145;43.118;25.694;2022-10-16T14:47:58;12.52;;;5.80;;
33844;SDS011;20145;43.118;25.694;2022-10-16T14:50:27;8.73;;;4.60;;
33844;SDS011;20145;43.118;25.694;2022-10-16T14:52:53;8.25;;;5.38;;
33844;SDS011;20145;43.118;25.694;2022-10-16T14:55:19;20.48;;;8.13;;
33844;SDS011;20145;43.118;25.694;2022-10-16T14:57:45;10.02;;;6.03;;
33844;SDS011;20145;43.118;25.694;2022-10-16T15:00:17;8.45;;;4.68;;
33844;SDS011;20145;43.118;25.694;2022-10-16T15:02:46;6.70;;;5.50;;
33844;SDS011;20145;43.118;25.694;2022-10-16T15:05:20;11.10;;;5.22;;
33844;SDS011;20145;43.118;25.694;2022-10-16T15:07:47;6.53;;;4.65;;
33844;SDS011;20145;43.118;25.694;2022-10-16T15:10:14;8.27;;;4.82;;
33844;SDS011;20145;43.118;25.694;2022-10-16T15:12:41;9.45;;;5.63;;
33844;SDS011;20145;43.118;25.694;2022-10-16T15:17:48;10.48;;;5.90;;
33844;SDS011;20145;43.118;25.694;2022-10-16T15:20:19;8.50;;;5.20;;
33844;SDS011;20145;43.118;25.694;2022-10-16T15:22:45;11.07;;;5.97;;
33844;SDS011;20145;43.118;25.694;2022-10-16T15:25:26;7.55;;;6.15;;
33844;SDS011;20145;43.118;25.694;2022-10-16T15:28:05;12.52;;;6.03;;
33844;SDS011;20145;43.118;25.694;2022-10-16T15:30:32;10.40;;;6.63;;
33844;SDS011;20145;43.118;25.694;2022-10-16T15:32:58;9.05;;;6.80;;
33844;SDS011;20145;43.118;25.694;2022-10-16T15:35:23;14.20;;;6.97;;
33844;SDS011;20145;43.118;25.694;2022-10-16T15:37:49;12.80;;;6.85;;
33844;SDS011;20145;43.118;25.694;2022-10-16T15:40:16;16.95;;;7.47;;
33844;SDS011;20145;43.118;25.694;2022-10-16T15:42:43;14.18;;;9.60;;
33844;SDS011;20145;43.118;25.694;2022-10-16T15:45:09;11.43;;;6.47;;
33844;SDS011;20145;43.118;25.694;2022-10-16T15:47:36;11.48;;;6.68;;
33844;SDS011;20145;43.118;25.694;2022-10-16T15:50:01;16.50;;;6.95;;
33844;SDS011;20145;43.118;25.694;2022-10-16T15:52:27;12.52;;;6.63;;
33844;SDS011;20145;43.118;25.694;2022-10-16T15:54:54;17.80;;;6.53;;
33844;SDS011;20145;43.118;25.694;2022-10-16T15:57:20;10.98;;;5.70;;
33844;SDS011;20145;43.118;25.694;2022-10-16T15:59:45;27.58;;;7.32;;
33844;SDS011;20145;43.118;25.694;2022-10-16T16:02:11;27.42;;;7.75;;
33844;SDS011;20145;43.118;25.694;2022-10-16T16:04:37;17.67;;;7.32;;
33844;SDS011;20145;43.118;25.694;2022-10-16T16:07:02;20.35;;;6.88;;
33844;SDS011;20145;43.118;25.694;2022-10-16T16:09:30;13.20;;;7.25;;
33844;SDS011;20145;43.118;25.694;2022-10-16T16:11:56;14.75;;;7.53;;
33844;SDS011;20145;43.118;25.694;2022-10-16T16:14:24;29.90;;;13.73;;
33844;SDS011;20145;43.118;25.694;2022-10-16T16:16:51;26.70;;;12.90;;
33844;SDS011;20145;43.118;25.694;2022-10-16T16:19:16;17.65;;;9.20;;
33844;SDS011;20145;43.118;25.694;2022-10-16T16:21:46;11.93;;;7.00;;
33844;SDS011;20145;43.118;25.694;2022-10-16T16:24:12;12.82;;;7.43;;
33844;SDS011;20145;43.118;25.694;2022-10-16T16:26:37;16.20;;;9.35;;
33844;SDS011;20145;43.118;25.694;2022-10-16T16:29:05;23.10;;;9.90;;
33844;SDS011;20145;43.118;25.694;2022-10-16T16:31:31;15.52;;;12.07;;
33844;SDS011;20145;43.118;25.694;2022-10-16T16:33:57;14.43;;;8.63;;
33844;SDS011;20145;43.118;25.694;2022-10-16T16:36:23;12.65;;;8.32;;
33844;SDS011;20145;43.118;25.694;2022-10-16T16:38:50;11.20;;;8.25;;
33844;SDS011;20145;43.118;25.694;2022-10-16T16:41:21;23.63;;;14.02;;
33844;SDS011;20145;43.118;25.694;2022-10-16T16:43:48;15.27;;;8.68;;
33844;SDS011;20145;43.118;25.694;2022-10-16T16:46:16;33.22;;;22.85;;
33844;SDS011;20145;43.118;25.694;2022-10-16T16:48:43;14.23;;;9.68;;
33844;SDS011;20145;43.118;25.694;2022-10-16T16:51:10;15.32;;;7.53;;
33844;SDS011;20145;43.118;25.694;2022-10-16T16:53:40;9.15;;;7.00;;
33844;SDS011;20145;43.118;25.694;2022-10-16T16:56:07;7.75;;;6.18;;
33844;SDS011;20145;43.118;25.694;2022-10-16T16:58:33;10.43;;;6.90;;
33844;SDS011;20145;43.118;25.694;2022-10-16T17:00:59;9.38;;;6.03;;